EGJA/ACI METAR and TAF weather

Enter ICAO airport designator
Station Type Date Time Source
EGJA METAR 2019/08/25 07:20 UTC NOAA

EGJA 250720Z 29010KT 4000 BR SCT002 17/17 Q1018


Station Type Date Time Source
EGJA Decoded METAR 2019/08/25 07:20 UTC NOAA

Station name not available
Aug 25, 2019 - 03:20 AM EDT / 2019.08.25 0720 UTC
Wind: from the WNW (290 degrees) at 12 MPH (10 KT):0
Visibility: 2 mile(s):0
Sky conditions: partly cloudy
Weather: mist
Temperature: 62 F (17 C)
Dew Point: 62 F (17 C)
Relative Humidity: 100%
Pressure (altimeter): 30.06 in. Hg (1018 hPa)
ob: EGJA 250720Z 29010KT 4000 BR SCT002 17/17 Q1018
cycle: 7

Station Type Date Time Source
EGJA TAF UTC NOAA

Error!

Example: see airport list